createdAt,value
2018-06-29T00:01:09.248Z,22.00
2018-06-29T00:06:12.463Z,22.00
2018-06-29T00:11:16.500Z,22.00
2018-06-29T00:21:22.644Z,21.60
2018-06-29T00:26:26.018Z,21.50
2018-06-29T00:36:31.889Z,21.10
2018-06-29T00:41:34.945Z,21.10
2018-06-29T00:46:38.132Z,21.10
2018-06-29T00:56:44.377Z,21.10
2018-06-29T01:01:47.580Z,21.30
2018-06-29T01:06:50.572Z,21.30
2018-06-29T01:11:53.577Z,21.30
2018-06-29T01:16:56.598Z,21.30
2018-06-29T01:21:59.613Z,21.30
2018-06-29T01:27:02.675Z,21.20
2018-06-29T01:32:05.965Z,21.10
2018-06-29T01:37:09.261Z,21.10
2018-06-29T01:42:12.234Z,21.10
2018-06-29T01:47:15.472Z,21.10
2018-06-29T01:52:18.492Z,21.00
2018-06-29T01:57:21.472Z,21.10
2018-06-29T02:02:24.501Z,21.30
2018-06-29T02:07:27.548Z,21.30
2018-06-29T02:12:30.553Z,21.10
2018-06-29T02:17:33.628Z,21.10
2018-06-29T02:22:36.599Z,20.90
2018-06-29T02:27:39.841Z,21.00
2018-06-29T02:32:42.937Z,21.10
2018-06-29T02:37:45.967Z,21.30
2018-06-29T02:42:48.929Z,21.30
2018-06-29T02:47:51.904Z,21.20
2018-06-29T02:52:54.900Z,21.20
2018-06-29T02:57:57.876Z,21.10
2018-06-29T03:03:00.869Z,21.10
2018-06-29T03:08:05.301Z,21.10
2018-06-29T03:13:08.316Z,21.20
2018-06-29T03:18:11.354Z,21.20
2018-06-29T03:23:14.320Z,21.30
2018-06-29T03:28:17.594Z,21.30
2018-06-29T03:33:20.605Z,21.40
2018-06-29T03:38:23.655Z,21.40
2018-06-29T03:43:26.693Z,21.40
2018-06-29T03:48:30.026Z,21.40
2018-06-29T03:53:33.094Z,21.50
2018-06-29T03:58:36.098Z,21.50
2018-06-29T04:03:39.080Z,21.50
2018-06-29T04:08:42.061Z,21.50
2018-06-29T04:13:45.013Z,21.50
2018-06-29T04:18:48.051Z,21.50
2018-06-29T04:23:51.069Z,21.50
2018-06-29T04:28:54.143Z,21.60
2018-06-29T04:33:57.160Z,21.50
2018-06-29T04:39:00.264Z,21.50
2018-06-29T04:44:03.293Z,21.40
2018-06-29T04:49:06.282Z,21.50
2018-06-29T04:54:09.300Z,21.60
2018-06-29T04:59:12.552Z,21.70
2018-06-29T05:04:15.779Z,21.70
2018-06-29T05:09:18.848Z,21.60
2018-06-29T05:14:21.752Z,21.60
2018-06-29T05:19:24.892Z,21.70
2018-06-29T05:24:27.844Z,21.90
2018-06-29T05:29:30.892Z,22.10
2018-06-29T05:34:33.889Z,22.30
2018-06-29T05:39:36.835Z,22.50
2018-06-29T05:44:39.924Z,22.50
2018-06-29T05:49:43.024Z,22.50
2018-06-29T05:54:46.123Z,22.70
2018-06-29T05:59:49.170Z,22.80
2018-06-29T06:04:53.089Z,23.00
2018-06-29T06:09:56.284Z,24.50
2018-06-29T06:14:59.260Z,26.20
2018-06-29T06:20:11.802Z,27.70
2018-06-29T06:25:14.915Z,28.00
2018-06-29T06:30:18.140Z,26.20
2018-06-29T06:35:21.343Z,26.80
2018-06-29T06:40:24.664Z,27.60
2018-06-29T06:45:27.688Z,29.00
2018-06-29T06:50:30.808Z,27.00
2018-06-29T06:55:33.790Z,25.80
2018-06-29T07:00:36.988Z,28.00
2018-06-29T07:05:40.181Z,27.80
2018-06-29T07:10:43.487Z,27.80
2018-06-29T07:15:46.809Z,29.10
2018-06-29T07:20:50.028Z,29.20
2018-06-29T07:25:53.106Z,29.40
2018-06-29T07:30:56.418Z,28.60
2018-06-29T07:35:59.464Z,29.10
2018-06-29T07:41:02.648Z,30.30
2018-06-29T07:46:06.244Z,30.90
2018-06-29T07:51:09.311Z,30.90
2018-06-29T07:56:12.483Z,31.30
2018-06-29T08:01:15.683Z,31.50
2018-06-29T08:06:18.583Z,31.40
2018-06-29T08:11:21.816Z,31.70
2018-06-29T08:16:25.009Z,30.30
2018-06-29T08:21:28.051Z,31.80
2018-06-29T08:26:31.058Z,30.50
2018-06-29T08:31:34.152Z,29.70
2018-06-29T08:36:37.314Z,28.60
2018-06-29T08:41:40.484Z,29.40
2018-06-29T08:46:43.761Z,28.90
2018-06-29T08:51:46.806Z,29.00
2018-06-29T08:56:49.868Z,28.40
2018-06-29T09:01:52.953Z,28.20
2018-06-29T09:06:56.368Z,28.40
2018-06-29T09:11:59.571Z,28.00
2018-06-29T09:17:02.651Z,27.50
2018-06-29T09:22:06.115Z,28.10
2018-06-29T09:27:09.395Z,28.40
2018-06-29T09:32:12.331Z,28.80
2018-06-29T09:37:15.500Z,28.70
2018-06-29T09:42:18.850Z,28.60
2018-06-29T09:47:21.964Z,28.50
2018-06-29T09:52:25.121Z,29.10
2018-06-29T09:57:28.361Z,29.40
2018-06-29T10:02:31.691Z,30.00
2018-06-29T10:07:34.439Z,29.20
2018-06-29T10:12:37.603Z,28.90
2018-06-29T10:17:40.787Z,29.10
2018-06-29T10:22:43.945Z,28.90
2018-06-29T10:27:47.207Z,28.60
2018-06-29T10:32:50.504Z,28.90
2018-06-29T10:37:53.866Z,29.10
2018-06-29T10:42:57.129Z,29.90
2018-06-29T10:48:00.216Z,30.00
2018-06-29T10:53:03.463Z,30.60
2018-06-29T10:58:06.748Z,30.90
2018-06-29T11:03:09.872Z,31.40
2018-06-29T11:08:13.188Z,31.70
2018-06-29T11:13:16.396Z,32.80
2018-06-29T11:18:19.590Z,32.40
2018-06-29T11:23:22.629Z,31.80
2018-06-29T11:28:25.757Z,32.10
2018-06-29T11:33:28.852Z,33.70
2018-06-29T11:38:31.902Z,31.90
2018-06-29T11:43:35.231Z,30.20
2018-06-29T11:48:38.439Z,29.40
2018-06-29T11:53:41.700Z,29.20
2018-06-29T11:58:44.866Z,29.10
2018-06-29T12:03:48.169Z,29.30
2018-06-29T12:08:51.227Z,29.50
2018-06-29T12:13:54.890Z,29.40
2018-06-29T12:18:58.026Z,29.20
2018-06-29T12:24:01.213Z,29.00
2018-06-29T12:29:04.622Z,29.30
2018-06-29T12:34:07.933Z,29.50
2018-06-29T12:39:11.181Z,29.80
2018-06-29T12:44:14.356Z,29.60
2018-06-29T12:49:17.550Z,29.50
2018-06-29T12:54:20.855Z,29.40
2018-06-29T12:59:23.909Z,29.40
2018-06-29T13:04:26.884Z,29.60
2018-06-29T13:09:30.041Z,29.50
2018-06-29T13:14:33.393Z,29.30
2018-06-29T13:19:36.564Z,29.40
2018-06-29T13:24:39.627Z,29.40
2018-06-29T13:29:42.781Z,29.50
2018-06-29T13:34:46.013Z,29.60
2018-06-29T13:39:49.197Z,29.70
2018-06-29T13:44:52.433Z,29.70
2018-06-29T13:49:55.377Z,29.80
2018-06-29T13:54:58.582Z,29.50
2018-06-29T14:00:01.642Z,29.60
2018-06-29T14:05:04.956Z,29.60
2018-06-29T14:10:08.269Z,29.70
2018-06-29T14:15:11.331Z,29.90
2018-06-29T14:20:15.207Z,30.00
2018-06-29T14:25:18.517Z,30.00
2018-06-29T14:30:21.732Z,30.10
2018-06-29T14:35:24.782Z,30.10
2018-06-29T14:40:27.840Z,29.80
2018-06-29T14:45:31.044Z,30.00
2018-06-29T14:50:34.149Z,30.00
2018-06-29T14:55:37.992Z,30.20
2018-06-29T15:00:41.007Z,29.90
2018-06-29T15:05:44.029Z,30.00
2018-06-29T15:10:47.091Z,29.90
2018-06-29T15:15:50.449Z,30.00
2018-06-29T15:20:53.572Z,29.90
2018-06-29T15:25:56.804Z,30.10
2018-06-29T15:30:59.781Z,30.30
2018-06-29T15:36:02.958Z,30.30
2018-06-29T15:41:06.279Z,30.30
2018-06-29T15:46:09.515Z,30.20
2018-06-29T15:51:12.813Z,30.10
2018-06-29T15:56:15.940Z,30.10
2018-06-29T16:01:19.180Z,30.10
2018-06-29T16:06:22.258Z,30.20
2018-06-29T16:11:25.454Z,30.30
2018-06-29T16:16:28.704Z,30.20
2018-06-29T16:21:31.924Z,30.20
2018-06-29T16:26:35.001Z,30.20
2018-06-29T16:31:38.021Z,30.10
2018-06-29T16:36:41.081Z,30.00
2018-06-29T16:41:44.115Z,30.00
2018-06-29T16:46:47.643Z,30.10
2018-06-29T16:51:50.871Z,30.20
2018-06-29T16:56:54.167Z,30.10
2018-06-29T17:01:57.459Z,29.90
2018-06-29T17:07:00.485Z,29.80
2018-06-29T17:17:06.753Z,29.90
2018-06-29T17:22:09.900Z,29.80
2018-06-29T17:27:12.987Z,29.70
2018-06-29T17:32:16.156Z,29.60
2018-06-29T17:37:19.465Z,29.50
2018-06-29T17:42:22.577Z,29.50
2018-06-29T17:47:25.699Z,29.60
2018-06-29T17:52:28.699Z,29.40
2018-06-29T17:57:31.765Z,29.20
2018-06-29T18:02:34.838Z,29.20
2018-06-29T18:07:37.812Z,29.10
2018-06-29T18:12:40.816Z,29.10
2018-06-29T18:17:43.868Z,29.00
2018-06-29T18:22:46.883Z,29.00
2018-06-29T18:27:50.183Z,28.90
2018-06-29T18:32:53.273Z,28.80
2018-06-29T18:37:56.280Z,28.60
2018-06-29T18:42:59.595Z,28.40
2018-06-29T18:48:02.889Z,28.30
2018-06-29T18:53:06.042Z,28.10
2018-06-29T18:58:09.345Z,27.90
2018-06-29T19:03:12.743Z,27.80
2018-06-29T19:08:15.905Z,27.60
2018-06-29T19:13:19.263Z,27.40
2018-06-29T19:18:22.545Z,27.20
2018-06-29T19:23:25.888Z,27.10
2018-06-29T19:28:28.904Z,26.80
2018-06-29T19:33:32.063Z,26.60
2018-06-29T19:38:35.218Z,26.30
2018-06-29T19:43:38.296Z,26.00
2018-06-29T19:48:41.512Z,25.80
2018-06-29T19:53:44.723Z,25.50
2018-06-29T19:58:47.846Z,25.30
2018-06-29T20:03:51.340Z,24.80
2018-06-29T20:08:54.455Z,24.50
2018-06-29T20:13:57.436Z,24.40
2018-06-29T20:19:00.526Z,24.20
2018-06-29T20:24:04.100Z,24.00
2018-06-29T20:29:07.380Z,23.80
2018-06-29T20:34:10.403Z,23.70
2018-06-29T20:39:13.473Z,23.70
2018-06-29T20:44:16.544Z,23.70
2018-06-29T20:49:19.620Z,23.90
2018-06-29T20:54:22.919Z,23.90
2018-06-29T20:59:26.180Z,23.90
2018-06-29T21:04:29.547Z,23.60
2018-06-29T21:09:32.710Z,23.40
2018-06-29T21:14:35.797Z,23.30
2018-06-29T21:19:39.158Z,23.30
2018-06-29T21:24:42.198Z,23.10
2018-06-29T21:29:45.312Z,22.90
2018-06-29T21:34:48.319Z,22.90
2018-06-29T21:39:51.685Z,22.80
2018-06-29T21:44:54.905Z,22.60
2018-06-29T21:49:58.237Z,22.50
2018-06-29T22:00:09.148Z,22.30
2018-06-29T22:05:12.278Z,22.30
2018-06-29T22:10:15.560Z,22.20
2018-06-29T22:15:22.921Z,22.10
2018-06-29T22:20:25.976Z,22.10
2018-06-29T22:25:29.181Z,22.00
2018-06-29T22:30:32.480Z,22.00
2018-06-29T22:35:35.687Z,22.10
2018-06-29T22:40:38.638Z,22.00
2018-06-29T22:45:41.735Z,22.00
2018-06-29T22:50:44.690Z,22.00
2018-06-29T22:55:47.652Z,21.90
2018-06-29T23:00:50.696Z,21.80
2018-06-29T23:05:53.764Z,21.80
2018-06-29T23:10:56.808Z,21.70
2018-06-29T23:15:59.854Z,21.60
2018-06-29T23:21:03.152Z,21.60
2018-06-29T23:26:06.331Z,21.60
2018-06-29T23:31:09.545Z,21.50
2018-06-29T23:36:12.598Z,21.50
2018-06-29T23:41:15.603Z,21.50
2018-06-29T23:46:18.652Z,21.50
2018-06-29T23:51:21.750Z,21.50
2018-06-29T23:56:24.812Z,21.40
